weather.gov     
National Weather Service

Terminal Aerodrome Forecast
NWS Homepage
This page is being discontinued on March 12, 2014.
The same data is available at this site. Please update your bookmarks.
Thank you, and we apologize for the inconvenience.
Please send an email to SR-SRH.Webmaster@noaa.gov with any concerns.


Current Version
Previous Version:    01  02  03  04  05  06  07  08  09  10  11  12  13  14  15  16  17  18  19  20  21  22  23  24  25  26  27  28  29  30  
   31  32  33  34  35  36  37  38  39  40  41  42  43  
[Printable]
151
FTUS42 KTBW 181200 AAA
TAFRSW
TAF AMD
KRSW 181211Z 1812/1912 10010KT P6SM SCT010 BKN060
      TEMPO 1812/1814 BKN010
     FM181500 14013KT P6SM VCTS SCT070CB BKN150
     FM182300 20010KT P6SM SCT100 OVC150
     FM190000 20008KT P6SM SHRA BKN090 OVC100=


U.S. Dept. of Commerce
NOAA National Weather Service
1325 East West Highway
Silver Spring, MD 20910
E-mail: w-nws.webmaster@noaa.gov
Page last modified: May 16, 2007
NATIONAL WEATHER SERVICE: for Safety, for Work, for Fun - FOR LIFE